sensor_id;sensor_type;location;lat;lon;timestamp;temperature;humidity
15625;DHT22;7912;51.376;6.126;2022-07-23T00:01:12;21.00;99.90
15625;DHT22;7912;51.376;6.126;2022-07-23T00:03:39;21.00;99.90
15625;DHT22;7912;51.376;6.126;2022-07-23T00:06:07;21.00;99.90
15625;DHT22;7912;51.376;6.126;2022-07-23T00:08:36;21.00;99.90
15625;DHT22;7912;51.376;6.126;2022-07-23T00:11:03;21.00;99.90
15625;DHT22;7912;51.376;6.126;2022-07-23T00:13:31;20.90;99.90
15625;DHT22;7912;51.376;6.126;2022-07-23T00:15:59;20.90;99.90
15625;DHT22;7912;51.376;6.126;2022-07-23T00:18:27;20.90;99.90
15625;DHT22;7912;51.376;6.126;2022-07-23T00:20:57;20.80;99.90
15625;DHT22;7912;51.376;6.126;2022-07-23T00:23:24;20.80;99.90
15625;DHT22;7912;51.376;6.126;2022-07-23T00:25:53;20.70;99.90
15625;DHT22;7912;51.376;6.126;2022-07-23T00:28:21;20.70;99.90
15625;DHT22;7912;51.376;6.126;2022-07-23T00:30:48;20.60;99.90
15625;DHT22;7912;51.376;6.126;2022-07-23T00:33:15;20.60;99.90
15625;DHT22;7912;51.376;6.126;2022-07-23T00:35:43;20.50;99.90
15625;DHT22;7912;51.376;6.126;2022-07-23T00:38:11;20.50;99.90
15625;DHT22;7912;51.376;6.126;2022-07-23T00:40:39;20.40;99.90
15625;DHT22;7912;51.376;6.126;2022-07-23T00:43:06;20.40;99.90
15625;DHT22;7912;51.376;6.126;2022-07-23T00:45:34;20.40;99.90
15625;DHT22;7912;51.376;6.126;2022-07-23T00:48:02;20.30;99.90
15625;DHT22;7912;51.376;6.126;2022-07-23T00:50:30;20.30;99.90
15625;DHT22;7912;51.376;6.126;2022-07-23T00:52:58;20.20;99.90
15625;DHT22;7912;51.376;6.126;2022-07-23T00:55:25;20.20;99.90
15625;DHT22;7912;51.376;6.126;2022-07-23T00:57:55;20.20;99.90
15625;DHT22;7912;51.376;6.126;2022-07-23T01:00:22;20.10;99.90
15625;DHT22;7912;51.376;6.126;2022-07-23T01:02:50;20.10;99.90
15625;DHT22;7912;51.376;6.126;2022-07-23T01:05:18;20.10;99.90
15625;DHT22;7912;51.376;6.126;2022-07-23T01:07:49;20.00;99.90
15625;DHT22;7912;51.376;6.126;2022-07-23T01:10:40;20.00;99.90
15625;DHT22;7912;51.376;6.126;2022-07-23T01:13:09;20.00;99.90
15625;DHT22;7912;51.376;6.126;2022-07-23T01:15:38;20.00;99.90
15625;DHT22;7912;51.376;6.126;2022-07-23T01:18:07;20.00;99.90
15625;DHT22;7912;51.376;6.126;2022-07-23T01:20:35;19.90;99.90
15625;DHT22;7912;51.376;6.126;2022-07-23T01:23:03;19.90;99.90
15625;DHT22;7912;51.376;6.126;2022-07-23T01:25:30;19.90;99.90
15625;DHT22;7912;51.376;6.126;2022-07-23T01:27:57;19.80;99.90
15625;DHT22;7912;51.376;6.126;2022-07-23T01:30:25;19.80;99.90
15625;DHT22;7912;51.376;6.126;2022-07-23T01:32:52;19.80;99.90
15625;DHT22;7912;51.376;6.126;2022-07-23T01:35:20;19.70;99.90
15625;DHT22;7912;51.376;6.126;2022-07-23T01:37:48;19.70;99.90
15625;DHT22;7912;51.376;6.126;2022-07-23T01:40:15;19.70;99.90
15625;DHT22;7912;51.376;6.126;2022-07-23T01:42:44;19.70;99.90
15625;DHT22;7912;51.376;6.126;2022-07-23T01:45:13;19.60;99.90
15625;DHT22;7912;51.376;6.126;2022-07-23T01:47:40;19.60;99.90
15625;DHT22;7912;51.376;6.126;2022-07-23T01:50:08;19.60;99.90
15625;DHT22;7912;51.376;6.126;2022-07-23T01:52:36;19.60;99.90
15625;DHT22;7912;51.376;6.126;2022-07-23T01:55:04;19.60;99.90
15625;DHT22;7912;51.376;6.126;2022-07-23T01:57:33;19.60;99.90
15625;DHT22;7912;51.376;6.126;2022-07-23T02:00:01;19.60;99.90
15625;DHT22;7912;51.376;6.126;2022-07-23T02:02:28;19.50;99.90
15625;DHT22;7912;51.376;6.126;2022-07-23T02:04:56;19.50;99.90
15625;DHT22;7912;51.376;6.126;2022-07-23T02:07:23;19.50;99.90
15625;DHT22;7912;51.376;6.126;2022-07-23T02:09:51;19.50;99.90
15625;DHT22;7912;51.376;6.126;2022-07-23T02:12:19;19.40;99.90
15625;DHT22;7912;51.376;6.126;2022-07-23T02:14:46;19.40;99.90
15625;DHT22;7912;51.376;6.126;2022-07-23T02:20:18;19.30;99.90
15625;DHT22;7912;51.376;6.126;2022-07-23T02:22:45;19.30;99.90
15625;DHT22;7912;51.376;6.126;2022-07-23T02:25:13;19.30;99.90
15625;DHT22;7912;51.376;6.126;2022-07-23T02:27:41;19.30;99.90
15625;DHT22;7912;51.376;6.126;2022-07-23T02:30:08;19.30;99.90
15625;DHT22;7912;51.376;6.126;2022-07-23T02:32:37;19.30;99.90
15625;DHT22;7912;51.376;6.126;2022-07-23T02:35:06;19.30;99.90
15625;DHT22;7912;51.376;6.126;2022-07-23T02:37:34;19.20;99.90
15625;DHT22;7912;51.376;6.126;2022-07-23T02:40:02;19.20;99.90
15625;DHT22;7912;51.376;6.126;2022-07-23T02:42:29;19.20;99.90
15625;DHT22;7912;51.376;6.126;2022-07-23T02:44:57;19.20;99.90
15625;DHT22;7912;51.376;6.126;2022-07-23T02:47:24;19.10;99.90
15625;DHT22;7912;51.376;6.126;2022-07-23T02:49:52;19.10;99.90
15625;DHT22;7912;51.376;6.126;2022-07-23T02:52:19;19.10;99.90
15625;DHT22;7912;51.376;6.126;2022-07-23T02:54:48;19.00;99.90
15625;DHT22;7912;51.376;6.126;2022-07-23T02:57:15;19.00;99.90
15625;DHT22;7912;51.376;6.126;2022-07-23T02:59:42;19.00;99.90
15625;DHT22;7912;51.376;6.126;2022-07-23T03:02:10;19.00;99.90
15625;DHT22;7912;51.376;6.126;2022-07-23T03:04:37;19.00;99.90
15625;DHT22;7912;51.376;6.126;2022-07-23T03:07:05;19.00;99.90
15625;DHT22;7912;51.376;6.126;2022-07-23T03:09:32;18.90;99.90
15625;DHT22;7912;51.376;6.126;2022-07-23T03:11:59;18.90;99.90
15625;DHT22;7912;51.376;6.126;2022-07-23T03:14:27;18.90;99.90
15625;DHT22;7912;51.376;6.126;2022-07-23T03:16:54;18.90;99.90
15625;DHT22;7912;51.376;6.126;2022-07-23T03:19:22;18.90;99.90
15625;DHT22;7912;51.376;6.126;2022-07-23T03:21:49;18.90;99.90
15625;DHT22;7912;51.376;6.126;2022-07-23T03:24:17;18.80;99.90
15625;DHT22;7912;51.376;6.126;2022-07-23T03:26:47;18.80;99.90
15625;DHT22;7912;51.376;6.126;2022-07-23T03:29:14;18.80;99.90
15625;DHT22;7912;51.376;6.126;2022-07-23T03:31:41;18.80;99.90
15625;DHT22;7912;51.376;6.126;2022-07-23T03:34:09;18.80;99.90
15625;DHT22;7912;51.376;6.126;2022-07-23T03:36:36;18.70;99.90
15625;DHT22;7912;51.376;6.126;2022-07-23T03:39:04;18.80;99.90
15625;DHT22;7912;51.376;6.126;2022-07-23T03:41:32;18.70;99.90
15625;DHT22;7912;51.376;6.126;2022-07-23T03:43:59;18.70;99.90
15625;DHT22;7912;51.376;6.126;2022-07-23T03:46:27;18.70;99.90
15625;DHT22;7912;51.376;6.126;2022-07-23T03:48:54;18.60;99.90
15625;DHT22;7912;51.376;6.126;2022-07-23T03:51:25;18.70;99.90
15625;DHT22;7912;51.376;6.126;2022-07-23T03:53:52;18.60;99.90
15625;DHT22;7912;51.376;6.126;2022-07-23T03:56:20;18.60;99.90
15625;DHT22;7912;51.376;6.126;2022-07-23T03:58:47;18.60;99.90
15625;DHT22;7912;51.376;6.126;2022-07-23T04:01:15;18.60;99.90
15625;DHT22;7912;51.376;6.126;2022-07-23T04:03:43;18.60;99.90
15625;DHT22;7912;51.376;6.126;2022-07-23T04:06:11;18.50;99.90
15625;DHT22;7912;51.376;6.126;2022-07-23T04:08:38;18.50;99.90
15625;DHT22;7912;51.376;6.126;2022-07-23T04:11:06;18.50;99.90
15625;DHT22;7912;51.376;6.126;2022-07-23T04:13:33;18.50;99.90
15625;DHT22;7912;51.376;6.126;2022-07-23T04:16:01;18.50;99.90
15625;DHT22;7912;51.376;6.126;2022-07-23T04:18:29;18.50;99.90
15625;DHT22;7912;51.376;6.126;2022-07-23T04:20:56;18.50;99.90
15625;DHT22;7912;51.376;6.126;2022-07-23T04:23:24;18.50;99.90
15625;DHT22;7912;51.376;6.126;2022-07-23T04:25:52;18.40;99.90
15625;DHT22;7912;51.376;6.126;2022-07-23T04:28:19;18.40;99.90
15625;DHT22;7912;51.376;6.126;2022-07-23T04:30:47;18.40;99.90
15625;DHT22;7912;51.376;6.126;2022-07-23T04:33:15;18.40;99.90
15625;DHT22;7912;51.376;6.126;2022-07-23T04:35:43;18.40;99.90
15625;DHT22;7912;51.376;6.126;2022-07-23T04:38:10;18.40;99.90
15625;DHT22;7912;51.376;6.126;2022-07-23T04:40:37;18.40;99.90
15625;DHT22;7912;51.376;6.126;2022-07-23T04:43:05;18.40;99.90
15625;DHT22;7912;51.376;6.126;2022-07-23T04:45:32;18.40;99.90
15625;DHT22;7912;51.376;6.126;2022-07-23T04:48:00;18.40;99.90
15625;DHT22;7912;51.376;6.126;2022-07-23T04:50:28;18.40;99.90
15625;DHT22;7912;51.376;6.126;2022-07-23T04:52:55;18.40;99.90
15625;DHT22;7912;51.376;6.126;2022-07-23T04:55:23;18.40;99.90
15625;DHT22;7912;51.376;6.126;2022-07-23T04:57:50;18.50;99.90
15625;DHT22;7912;51.376;6.126;2022-07-23T05:00:17;18.50;99.90
15625;DHT22;7912;51.376;6.126;2022-07-23T05:02:45;18.50;99.90
15625;DHT22;7912;51.376;6.126;2022-07-23T05:05:12;18.50;99.90
15625;DHT22;7912;51.376;6.126;2022-07-23T05:07:40;18.60;99.90
15625;DHT22;7912;51.376;6.126;2022-07-23T05:10:07;18.60;99.90
15625;DHT22;7912;51.376;6.126;2022-07-23T05:12:35;18.60;99.90
15625;DHT22;7912;51.376;6.126;2022-07-23T05:15:03;18.70;99.90
15625;DHT22;7912;51.376;6.126;2022-07-23T05:17:30;18.70;99.90
15625;DHT22;7912;51.376;6.126;2022-07-23T05:19:58;18.70;99.90
15625;DHT22;7912;51.376;6.126;2022-07-23T05:22:27;18.80;99.90
15625;DHT22;7912;51.376;6.126;2022-07-23T05:24:54;18.80;99.90
15625;DHT22;7912;51.376;6.126;2022-07-23T05:27:21;18.90;99.90
15625;DHT22;7912;51.376;6.126;2022-07-23T05:29:49;18.90;99.90
15625;DHT22;7912;51.376;6.126;2022-07-23T05:32:16;18.90;99.90
15625;DHT22;7912;51.376;6.126;2022-07-23T05:34:43;19.00;99.90
15625;DHT22;7912;51.376;6.126;2022-07-23T05:37:10;19.00;99.90
15625;DHT22;7912;51.376;6.126;2022-07-23T05:39:37;19.10;99.90
15625;DHT22;7912;51.376;6.126;2022-07-23T05:42:05;19.20;99.90
15625;DHT22;7912;51.376;6.126;2022-07-23T05:44:32;19.20;99.90
15625;DHT22;7912;51.376;6.126;2022-07-23T05:47:01;19.30;99.90
15625;DHT22;7912;51.376;6.126;2022-07-23T05:49:28;19.30;99.90
15625;DHT22;7912;51.376;6.126;2022-07-23T05:51:57;19.40;99.90
15625;DHT22;7912;51.376;6.126;2022-07-23T05:54:24;19.40;99.90
15625;DHT22;7912;51.376;6.126;2022-07-23T05:56:51;19.50;99.90
15625;DHT22;7912;51.376;6.126;2022-07-23T05:59:19;19.50;99.90
15625;DHT22;7912;51.376;6.126;2022-07-23T06:01:46;19.60;99.90
15625;DHT22;7912;51.376;6.126;2022-07-23T06:04:14;19.60;99.90
15625;DHT22;7912;51.376;6.126;2022-07-23T06:06:41;19.70;99.90
15625;DHT22;7912;51.376;6.126;2022-07-23T06:09:08;19.70;99.90
15625;DHT22;7912;51.376;6.126;2022-07-23T06:11:43;19.80;99.90
15625;DHT22;7912;51.376;6.126;2022-07-23T06:14:10;19.80;99.90
15625;DHT22;7912;51.376;6.126;2022-07-23T06:16:37;19.90;99.90
15625;DHT22;7912;51.376;6.126;2022-07-23T06:19:05;20.00;99.90
15625;DHT22;7912;51.376;6.126;2022-07-23T06:25:15;20.10;99.90
15625;DHT22;7912;51.376;6.126;2022-07-23T06:31:28;20.30;99.90
15625;DHT22;7912;51.376;6.126;2022-07-23T06:33:55;20.50;99.90
15625;DHT22;7912;51.376;6.126;2022-07-23T06:36:23;20.50;99.90
15625;DHT22;7912;51.376;6.126;2022-07-23T06:38:50;20.60;99.90
15625;DHT22;7912;51.376;6.126;2022-07-23T06:41:18;20.70;99.90
15625;DHT22;7912;51.376;6.126;2022-07-23T06:43:45;20.90;99.90
15625;DHT22;7912;51.376;6.126;2022-07-23T06:46:12;21.00;99.90
15625;DHT22;7912;51.376;6.126;2022-07-23T06:48:43;21.20;99.90
15625;DHT22;7912;51.376;6.126;2022-07-23T06:51:10;21.30;99.90
15625;DHT22;7912;51.376;6.126;2022-07-23T06:53:37;21.50;99.90
15625;DHT22;7912;51.376;6.126;2022-07-23T06:56:05;21.70;99.90
15625;DHT22;7912;51.376;6.126;2022-07-23T06:58:32;21.90;99.90
15625;DHT22;7912;51.376;6.126;2022-07-23T07:00:59;22.20;99.90
15625;DHT22;7912;51.376;6.126;2022-07-23T07:03:26;22.40;99.90
15625;DHT22;7912;51.376;6.126;2022-07-23T07:05:54;22.70;99.90
15625;DHT22;7912;51.376;6.126;2022-07-23T07:08:21;22.90;99.90
15625;DHT22;7912;51.376;6.126;2022-07-23T07:10:48;23.20;99.90
15625;DHT22;7912;51.376;6.126;2022-07-23T07:13:16;23.40;99.90
15625;DHT22;7912;51.376;6.126;2022-07-23T07:15:43;23.60;99.90
15625;DHT22;7912;51.376;6.126;2022-07-23T07:18:10;23.80;99.90
15625;DHT22;7912;51.376;6.126;2022-07-23T07:20:37;24.10;99.90
15625;DHT22;7912;51.376;6.126;2022-07-23T07:23:05;24.30;99.90
15625;DHT22;7912;51.376;6.126;2022-07-23T07:25:32;24.50;99.90
15625;DHT22;7912;51.376;6.126;2022-07-23T07:27:59;24.60;99.90
15625;DHT22;7912;51.376;6.126;2022-07-23T07:30:27;24.80;99.40
15625;DHT22;7912;51.376;6.126;2022-07-23T07:33:00;25.00;99.20
15625;DHT22;7912;51.376;6.126;2022-07-23T07:35:27;25.10;99.20
15625;DHT22;7912;51.376;6.126;2022-07-23T07:37:54;25.20;98.30
15625;DHT22;7912;51.376;6.126;2022-07-23T07:40:22;25.30;98.20
15625;DHT22;7912;51.376;6.126;2022-07-23T07:42:51;25.40;97.70
15625;DHT22;7912;51.376;6.126;2022-07-23T07:45:23;25.50;97.40
15625;DHT22;7912;51.376;6.126;2022-07-23T07:47:52;25.70;97.10
15625;DHT22;7912;51.376;6.126;2022-07-23T07:50:21;25.90;97.10
15625;DHT22;7912;51.376;6.126;2022-07-23T07:52:49;26.00;96.90
15625;DHT22;7912;51.376;6.126;2022-07-23T07:55:16;26.20;96.50
15625;DHT22;7912;51.376;6.126;2022-07-23T07:57:44;26.30;96.30
15625;DHT22;7912;51.376;6.126;2022-07-23T08:00:31;26.50;96.60
15625;DHT22;7912;51.376;6.126;2022-07-23T08:03:00;26.80;96.10
15625;DHT22;7912;51.376;6.126;2022-07-23T08:05:30;26.90;95.60
15625;DHT22;7912;51.376;6.126;2022-07-23T08:07:58;27.10;95.00
15625;DHT22;7912;51.376;6.126;2022-07-23T08:10:27;27.30;94.70
15625;DHT22;7912;51.376;6.126;2022-07-23T08:12:56;27.40;94.40
15625;DHT22;7912;51.376;6.126;2022-07-23T08:15:27;27.60;94.20
15625;DHT22;7912;51.376;6.126;2022-07-23T08:17:56;27.80;93.60
15625;DHT22;7912;51.376;6.126;2022-07-23T08:20:25;28.00;93.60
15625;DHT22;7912;51.376;6.126;2022-07-23T08:23:06;28.20;92.70
15625;DHT22;7912;51.376;6.126;2022-07-23T08:25:42;28.40;91.70
15625;DHT22;7912;51.376;6.126;2022-07-23T08:28:11;28.60;91.00
15625;DHT22;7912;51.376;6.126;2022-07-23T08:30:42;28.70;91.00
15625;DHT22;7912;51.376;6.126;2022-07-23T08:33:12;28.90;90.90
15625;DHT22;7912;51.376;6.126;2022-07-23T08:35:57;29.00;90.70
15625;DHT22;7912;51.376;6.126;2022-07-23T08:38:25;29.20;89.70
15625;DHT22;7912;51.376;6.126;2022-07-23T08:40:54;29.30;87.30
15625;DHT22;7912;51.376;6.126;2022-07-23T08:43:32;29.30;85.60
15625;DHT22;7912;51.376;6.126;2022-07-23T08:46:01;29.40;85.40
15625;DHT22;7912;51.376;6.126;2022-07-23T08:48:33;29.40;81.90
15625;DHT22;7912;51.376;6.126;2022-07-23T08:51:03;29.40;81.30
15625;DHT22;7912;51.376;6.126;2022-07-23T08:53:34;29.30;82.20
15625;DHT22;7912;51.376;6.126;2022-07-23T08:56:05;29.30;82.20
15625;DHT22;7912;51.376;6.126;2022-07-23T08:58:34;29.30;79.30
15625;DHT22;7912;51.376;6.126;2022-07-23T09:01:02;29.30;79.70
15625;DHT22;7912;51.376;6.126;2022-07-23T09:03:32;29.20;79.80
15625;DHT22;7912;51.376;6.126;2022-07-23T09:06:05;29.20;80.10
15625;DHT22;7912;51.376;6.126;2022-07-23T09:08:38;29.20;80.40
15625;DHT22;7912;51.376;6.126;2022-07-23T09:11:12;29.30;81.10
15625;DHT22;7912;51.376;6.126;2022-07-23T09:13:53;29.30;79.90
15625;DHT22;7912;51.376;6.126;2022-07-23T09:16:30;29.40;79.00
15625;DHT22;7912;51.376;6.126;2022-07-23T09:19:06;29.60;80.20
15625;DHT22;7912;51.376;6.126;2022-07-23T09:21:38;29.70;79.70
15625;DHT22;7912;51.376;6.126;2022-07-23T09:24:08;29.90;80.30
15625;DHT22;7912;51.376;6.126;2022-07-23T09:26:55;30.10;80.80
15625;DHT22;7912;51.376;6.126;2022-07-23T09:29:24;30.40;79.00
15625;DHT22;7912;51.376;6.126;2022-07-23T09:31:56;30.60;77.20
15625;DHT22;7912;51.376;6.126;2022-07-23T09:34:37;30.80;75.40
15625;DHT22;7912;51.376;6.126;2022-07-23T09:37:15;31.00;75.40
15625;DHT22;7912;51.376;6.126;2022-07-23T09:39:46;31.00;73.50
15625;DHT22;7912;51.376;6.126;2022-07-23T09:42:22;31.10;72.90
15625;DHT22;7912;51.376;6.126;2022-07-23T09:44:56;31.20;72.40
15625;DHT22;7912;51.376;6.126;2022-07-23T09:47:27;31.20;74.10
15625;DHT22;7912;51.376;6.126;2022-07-23T09:50:07;31.20;74.50
15625;DHT22;7912;51.376;6.126;2022-07-23T09:52:44;31.30;71.70
15625;DHT22;7912;51.376;6.126;2022-07-23T09:55:16;31.40;70.30
15625;DHT22;7912;51.376;6.126;2022-07-23T09:57:45;31.60;70.70
15625;DHT22;7912;51.376;6.126;2022-07-23T10:00:23;31.70;69.00
15625;DHT22;7912;51.376;6.126;2022-07-23T10:02:51;31.60;68.70
15625;DHT22;7912;51.376;6.126;2022-07-23T10:05:21;31.60;69.50
15625;DHT22;7912;51.376;6.126;2022-07-23T10:07:50;31.60;70.60
15625;DHT22;7912;51.376;6.126;2022-07-23T10:10:20;31.60;67.60
15625;DHT22;7912;51.376;6.126;2022-07-23T10:12:49;31.50;67.00
15625;DHT22;7912;51.376;6.126;2022-07-23T10:15:36;31.40;67.10
15625;DHT22;7912;51.376;6.126;2022-07-23T10:18:03;31.30;67.50
15625;DHT22;7912;51.376;6.126;2022-07-23T10:20:30;31.20;68.90
15625;DHT22;7912;51.376;6.126;2022-07-23T10:26:29;31.00;68.60
15625;DHT22;7912;51.376;6.126;2022-07-23T10:29:21;31.00;66.30
15625;DHT22;7912;51.376;6.126;2022-07-23T10:32:13;31.00;66.90
15625;DHT22;7912;51.376;6.126;2022-07-23T10:38:07;31.00;68.40
15625;DHT22;7912;51.376;6.126;2022-07-23T10:40:54;31.10;67.90
15625;DHT22;7912;51.376;6.126;2022-07-23T10:43:29;31.20;68.00
15625;DHT22;7912;51.376;6.126;2022-07-23T10:46:30;31.30;67.10
15625;DHT22;7912;51.376;6.126;2022-07-23T10:49:23;31.40;66.70
15625;DHT22;7912;51.376;6.126;2022-07-23T10:54:51;31.60;65.70
15625;DHT22;7912;51.376;6.126;2022-07-23T10:57:24;31.70;65.80
15625;DHT22;7912;51.376;6.126;2022-07-23T11:02:47;31.80;63.00
15625;DHT22;7912;51.376;6.126;2022-07-23T11:05:19;31.90;64.70
15625;DHT22;7912;51.376;6.126;2022-07-23T11:10:54;32.20;64.80
15625;DHT22;7912;51.376;6.126;2022-07-23T11:13:45;32.40;63.50
15625;DHT22;7912;51.376;6.126;2022-07-23T11:18:55;32.80;63.90
15625;DHT22;7912;51.376;6.126;2022-07-23T11:27:37;33.30;60.80
15625;DHT22;7912;51.376;6.126;2022-07-23T11:33:15;33.70;61.70
15625;DHT22;7912;51.376;6.126;2022-07-23T11:35:45;33.90;61.00
15625;DHT22;7912;51.376;6.126;2022-07-23T11:38:21;34.10;60.20
15625;DHT22;7912;51.376;6.126;2022-07-23T11:40:52;34.20;60.00
15625;DHT22;7912;51.376;6.126;2022-07-23T11:43:21;34.20;59.50
15625;DHT22;7912;51.376;6.126;2022-07-23T11:45:53;34.30;58.90
15625;DHT22;7912;51.376;6.126;2022-07-23T11:48:27;34.30;58.50
15625;DHT22;7912;51.376;6.126;2022-07-23T11:50:57;34.20;57.90
15625;DHT22;7912;51.376;6.126;2022-07-23T11:53:27;34.10;58.10
15625;DHT22;7912;51.376;6.126;2022-07-23T11:56:08;34.10;58.40
15625;DHT22;7912;51.376;6.126;2022-07-23T11:58:39;34.00;58.50
15625;DHT22;7912;51.376;6.126;2022-07-23T12:01:26;34.00;58.00
15625;DHT22;7912;51.376;6.126;2022-07-23T12:03:53;34.10;59.50
15625;DHT22;7912;51.376;6.126;2022-07-23T12:06:21;34.20;58.70
15625;DHT22;7912;51.376;6.126;2022-07-23T12:08:51;34.20;57.90
15625;DHT22;7912;51.376;6.126;2022-07-23T12:11:18;34.30;57.60
15625;DHT22;7912;51.376;6.126;2022-07-23T12:13:56;34.30;57.80
15625;DHT22;7912;51.376;6.126;2022-07-23T12:16:24;34.30;58.00
15625;DHT22;7912;51.376;6.126;2022-07-23T12:18:52;34.20;57.20
15625;DHT22;7912;51.376;6.126;2022-07-23T12:21:19;34.20;57.00
15625;DHT22;7912;51.376;6.126;2022-07-23T12:23:50;34.10;57.60
15625;DHT22;7912;51.376;6.126;2022-07-23T12:26:17;34.00;57.50
15625;DHT22;7912;51.376;6.126;2022-07-23T12:28:51;34.00;57.40
15625;DHT22;7912;51.376;6.126;2022-07-23T12:31:26;33.90;56.90
15625;DHT22;7912;51.376;6.126;2022-07-23T12:33:54;33.90;57.30
15625;DHT22;7912;51.376;6.126;2022-07-23T12:36:37;33.90;57.90
15625;DHT22;7912;51.376;6.126;2022-07-23T12:39:11;33.90;57.10
15625;DHT22;7912;51.376;6.126;2022-07-23T12:41:51;34.00;57.40
15625;DHT22;7912;51.376;6.126;2022-07-23T12:44:19;34.00;57.00
15625;DHT22;7912;51.376;6.126;2022-07-23T12:46:53;34.00;57.40
15625;DHT22;7912;51.376;6.126;2022-07-23T12:49:27;34.00;58.40
15625;DHT22;7912;51.376;6.126;2022-07-23T12:51:56;34.10;57.50
15625;DHT22;7912;51.376;6.126;2022-07-23T12:54:27;34.30;57.10
15625;DHT22;7912;51.376;6.126;2022-07-23T12:56:55;34.50;56.80
15625;DHT22;7912;51.376;6.126;2022-07-23T12:59:22;34.70;56.70
15625;DHT22;7912;51.376;6.126;2022-07-23T13:01:55;34.80;56.30
15625;DHT22;7912;51.376;6.126;2022-07-23T13:04:26;35.00;55.90
15625;DHT22;7912;51.376;6.126;2022-07-23T13:06:56;35.10;55.50
15625;DHT22;7912;51.376;6.126;2022-07-23T13:09:28;35.20;55.70
15625;DHT22;7912;51.376;6.126;2022-07-23T13:11:59;35.30;55.70
15625;DHT22;7912;51.376;6.126;2022-07-23T13:14:27;35.50;54.70
15625;DHT22;7912;51.376;6.126;2022-07-23T13:16:55;35.60;54.40
15625;DHT22;7912;51.376;6.126;2022-07-23T13:19:26;35.70;54.60
15625;DHT22;7912;51.376;6.126;2022-07-23T13:21:53;35.90;55.00
15625;DHT22;7912;51.376;6.126;2022-07-23T13:24:21;36.10;54.60
15625;DHT22;7912;51.376;6.126;2022-07-23T13:26:49;36.30;54.80
15625;DHT22;7912;51.376;6.126;2022-07-23T13:29:18;36.60;54.80
15625;DHT22;7912;51.376;6.126;2022-07-23T13:31:46;36.90;54.20
15625;DHT22;7912;51.376;6.126;2022-07-23T13:34:17;37.20;53.40
15625;DHT22;7912;51.376;6.126;2022-07-23T13:36:46;37.40;53.00
15625;DHT22;7912;51.376;6.126;2022-07-23T13:39:13;37.50;52.60
15625;DHT22;7912;51.376;6.126;2022-07-23T13:41:40;37.60;52.70
15625;DHT22;7912;51.376;6.126;2022-07-23T13:44:15;37.70;52.70
15625;DHT22;7912;51.376;6.126;2022-07-23T13:46:44;37.80;52.20
15625;DHT22;7912;51.376;6.126;2022-07-23T13:49:13;37.90;51.90
15625;DHT22;7912;51.376;6.126;2022-07-23T13:51:41;37.90;51.50
15625;DHT22;7912;51.376;6.126;2022-07-23T13:54:08;38.00;51.30
15625;DHT22;7912;51.376;6.126;2022-07-23T13:56:36;38.00;51.70
15625;DHT22;7912;51.376;6.126;2022-07-23T13:59:04;38.10;52.10
15625;DHT22;7912;51.376;6.126;2022-07-23T14:01:33;38.10;51.30
15625;DHT22;7912;51.376;6.126;2022-07-23T14:04:16;38.20;51.10
15625;DHT22;7912;51.376;6.126;2022-07-23T14:06:44;38.30;51.10
15625;DHT22;7912;51.376;6.126;2022-07-23T14:09:18;38.30;51.10
15625;DHT22;7912;51.376;6.126;2022-07-23T14:11:45;38.30;50.70
15625;DHT22;7912;51.376;6.126;2022-07-23T14:14:13;38.40;50.90
15625;DHT22;7912;51.376;6.126;2022-07-23T14:16:41;38.40;50.40
15625;DHT22;7912;51.376;6.126;2022-07-23T14:19:08;38.40;50.30
15625;DHT22;7912;51.376;6.126;2022-07-23T14:21:37;38.40;50.20
15625;DHT22;7912;51.376;6.126;2022-07-23T14:24:05;38.40;50.50
15625;DHT22;7912;51.376;6.126;2022-07-23T14:26:32;38.30;50.50
15625;DHT22;7912;51.376;6.126;2022-07-23T14:29:00;38.30;50.50
15625;DHT22;7912;51.376;6.126;2022-07-23T14:31:29;38.20;50.00
15625;DHT22;7912;51.376;6.126;2022-07-23T14:33:56;38.00;50.00
15625;DHT22;7912;51.376;6.126;2022-07-23T14:36:25;37.80;50.50
15625;DHT22;7912;51.376;6.126;2022-07-23T14:38:54;37.60;50.90
15625;DHT22;7912;51.376;6.126;2022-07-23T14:41:22;37.60;51.20
15625;DHT22;7912;51.376;6.126;2022-07-23T14:43:54;37.50;51.00
15625;DHT22;7912;51.376;6.126;2022-07-23T14:46:21;37.60;50.50
15625;DHT22;7912;51.376;6.126;2022-07-23T14:48:49;37.60;50.50
15625;DHT22;7912;51.376;6.126;2022-07-23T14:51:16;37.60;50.60
15625;DHT22;7912;51.376;6.126;2022-07-23T14:53:45;37.70;50.20
15625;DHT22;7912;51.376;6.126;2022-07-23T14:56:12;37.70;50.40
15625;DHT22;7912;51.376;6.126;2022-07-23T14:58:41;37.70;50.70
15625;DHT22;7912;51.376;6.126;2022-07-23T15:01:09;37.80;50.60
15625;DHT22;7912;51.376;6.126;2022-07-23T15:03:38;37.90;50.50
15625;DHT22;7912;51.376;6.126;2022-07-23T15:06:09;37.90;50.60
15625;DHT22;7912;51.376;6.126;2022-07-23T15:08:38;37.90;50.40
15625;DHT22;7912;51.376;6.126;2022-07-23T15:11:06;37.90;50.40
15625;DHT22;7912;51.376;6.126;2022-07-23T15:13:37;38.00;50.30
15625;DHT22;7912;51.376;6.126;2022-07-23T15:16:05;38.00;50.30
15625;DHT22;7912;51.376;6.126;2022-07-23T15:18:36;38.00;50.20
15625;DHT22;7912;51.376;6.126;2022-07-23T15:21:04;38.00;50.20
15625;DHT22;7912;51.376;6.126;2022-07-23T15:23:33;38.00;50.00
15625;DHT22;7912;51.376;6.126;2022-07-23T15:26:06;37.90;50.00
15625;DHT22;7912;51.376;6.126;2022-07-23T15:28:34;37.70;50.00
15625;DHT22;7912;51.376;6.126;2022-07-23T15:31:02;37.60;50.40
15625;DHT22;7912;51.376;6.126;2022-07-23T15:33:34;37.60;50.40
15625;DHT22;7912;51.376;6.126;2022-07-23T15:36:03;37.60;50.20
15625;DHT22;7912;51.376;6.126;2022-07-23T15:38:31;37.70;50.20
15625;DHT22;7912;51.376;6.126;2022-07-23T15:40:59;37.70;49.60
15625;DHT22;7912;51.376;6.126;2022-07-23T15:43:26;37.60;49.30
15625;DHT22;7912;51.376;6.126;2022-07-23T15:45:54;37.50;49.60
15625;DHT22;7912;51.376;6.126;2022-07-23T15:48:21;37.30;49.60
15625;DHT22;7912;51.376;6.126;2022-07-23T15:50:50;37.10;49.60
15625;DHT22;7912;51.376;6.126;2022-07-23T15:53:18;36.90;50.40
15625;DHT22;7912;51.376;6.126;2022-07-23T15:56:05;36.70;50.00
15625;DHT22;7912;51.376;6.126;2022-07-23T15:58:41;36.50;50.10
15625;DHT22;7912;51.376;6.126;2022-07-23T16:01:09;36.30;50.10
15625;DHT22;7912;51.376;6.126;2022-07-23T16:03:39;36.00;50.40
15625;DHT22;7912;51.376;6.126;2022-07-23T16:06:07;35.80;51.00
15625;DHT22;7912;51.376;6.126;2022-07-23T16:08:44;35.70;52.10
15625;DHT22;7912;51.376;6.126;2022-07-23T16:11:12;35.70;51.90
15625;DHT22;7912;51.376;6.126;2022-07-23T16:13:40;35.70;51.70
15625;DHT22;7912;51.376;6.126;2022-07-23T16:16:08;35.80;51.80
15625;DHT22;7912;51.376;6.126;2022-07-23T16:18:37;35.90;51.30
15625;DHT22;7912;51.376;6.126;2022-07-23T16:21:05;36.00;51.20
15625;DHT22;7912;51.376;6.126;2022-07-23T16:23:40;36.00;51.20
15625;DHT22;7912;51.376;6.126;2022-07-23T16:26:07;35.90;51.40
15625;DHT22;7912;51.376;6.126;2022-07-23T16:28:35;35.90;51.70
15625;DHT22;7912;51.376;6.126;2022-07-23T16:31:02;35.90;51.60
15625;DHT22;7912;51.376;6.126;2022-07-23T16:33:30;35.80;51.40
15625;DHT22;7912;51.376;6.126;2022-07-23T16:35:57;35.70;51.40
15625;DHT22;7912;51.376;6.126;2022-07-23T16:38:24;35.70;51.60